sensor_id;sensor_type;location;lat;lon;timestamp;P1;durP1;ratioP1;P2;durP2;ratioP2
69185;SDS011;56298;49.246;9.410;2023-10-19T00:00:41;25.52;;;16.05;;
69185;SDS011;56298;49.246;9.410;2023-10-19T00:03:12;28.17;;;16.30;;
69185;SDS011;56298;49.246;9.410;2023-10-19T00:05:38;27.38;;;16.75;;
69185;SDS011;56298;49.246;9.410;2023-10-19T00:08:04;27.93;;;16.23;;
69185;SDS011;56298;49.246;9.410;2023-10-19T00:10:39;28.50;;;16.48;;
69185;SDS011;56298;49.246;9.410;2023-10-19T00:13:07;28.73;;;16.92;;
69185;SDS011;56298;49.246;9.410;2023-10-19T00:15:36;28.73;;;16.67;;
69185;SDS011;56298;49.246;9.410;2023-10-19T00:18:06;28.98;;;17.25;;
69185;SDS011;56298;49.246;9.410;2023-10-19T00:20:43;26.50;;;16.23;;
69185;SDS011;56298;49.246;9.410;2023-10-19T00:23:10;26.20;;;16.40;;
69185;SDS011;56298;49.246;9.410;2023-10-19T00:25:38;27.90;;;16.63;;
69185;SDS011;56298;49.246;9.410;2023-10-19T00:28:06;26.17;;;16.90;;
69185;SDS011;56298;49.246;9.410;2023-10-19T00:30:32;29.08;;;16.88;;
69185;SDS011;56298;49.246;9.410;2023-10-19T00:33:00;28.80;;;16.92;;
69185;SDS011;56298;49.246;9.410;2023-10-19T00:35:29;28.25;;;17.17;;
69185;SDS011;56298;49.246;9.410;2023-10-19T00:38:07;29.92;;;17.30;;
69185;SDS011;56298;49.246;9.410;2023-10-19T00:40:51;32.30;;;17.60;;
69185;SDS011;56298;49.246;9.410;2023-10-19T00:43:31;31.35;;;17.70;;
69185;SDS011;56298;49.246;9.410;2023-10-19T00:46:08;31.27;;;17.88;;
69185;SDS011;56298;49.246;9.410;2023-10-19T00:48:39;30.92;;;17.40;;
69185;SDS011;56298;49.246;9.410;2023-10-19T00:51:08;29.50;;;17.50;;
69185;SDS011;56298;49.246;9.410;2023-10-19T00:53:55;30.58;;;18.27;;
69185;SDS011;56298;49.246;9.410;2023-10-19T00:56:24;31.48;;;18.13;;
69185;SDS011;56298;49.246;9.410;2023-10-19T00:58:53;29.33;;;17.52;;
69185;SDS011;56298;49.246;9.410;2023-10-19T01:01:22;34.85;;;18.45;;
69185;SDS011;56298;49.246;9.410;2023-10-19T01:03:53;32.70;;;18.73;;
69185;SDS011;56298;49.246;9.410;2023-10-19T01:06:21;33.20;;;18.37;;
69185;SDS011;56298;49.246;9.410;2023-10-19T01:08:47;32.30;;;18.05;;
69185;SDS011;56298;49.246;9.410;2023-10-19T01:11:16;32.45;;;18.55;;
69185;SDS011;56298;49.246;9.410;2023-10-19T01:13:44;31.05;;;18.80;;
69185;SDS011;56298;49.246;9.410;2023-10-19T01:16:16;36.00;;;18.80;;
69185;SDS011;56298;49.246;9.410;2023-10-19T01:18:48;32.88;;;18.67;;
69185;SDS011;56298;49.246;9.410;2023-10-19T01:21:23;31.98;;;18.63;;
69185;SDS011;56298;49.246;9.410;2023-10-19T01:24:01;34.85;;;18.75;;
69185;SDS011;56298;49.246;9.410;2023-10-19T01:26:31;32.90;;;18.67;;
69185;SDS011;56298;49.246;9.410;2023-10-19T01:28:56;33.20;;;19.10;;
69185;SDS011;56298;49.246;9.410;2023-10-19T01:31:38;31.95;;;18.88;;
69185;SDS011;56298;49.246;9.410;2023-10-19T01:34:04;31.92;;;18.10;;
69185;SDS011;56298;49.246;9.410;2023-10-19T01:36:31;31.50;;;18.02;;
69185;SDS011;56298;49.246;9.410;2023-10-19T01:39:02;33.03;;;18.17;;
69185;SDS011;56298;49.246;9.410;2023-10-19T01:41:34;35.88;;;18.92;;
69185;SDS011;56298;49.246;9.410;2023-10-19T01:43:59;33.87;;;18.10;;
69185;SDS011;56298;49.246;9.410;2023-10-19T01:46:29;31.13;;;17.07;;
69185;SDS011;56298;49.246;9.410;2023-10-19T01:49:02;31.08;;;17.30;;
69185;SDS011;56298;49.246;9.410;2023-10-19T01:51:29;33.75;;;18.13;;
69185;SDS011;56298;49.246;9.410;2023-10-19T01:53:57;36.35;;;17.75;;
69185;SDS011;56298;49.246;9.410;2023-10-19T01:56:24;32.35;;;17.55;;
69185;SDS011;56298;49.246;9.410;2023-10-19T01:58:49;35.67;;;18.60;;
69185;SDS011;56298;49.246;9.410;2023-10-19T02:01:19;31.85;;;18.63;;
69185;SDS011;56298;49.246;9.410;2023-10-19T02:03:51;33.80;;;18.90;;
69185;SDS011;56298;49.246;9.410;2023-10-19T02:06:19;32.78;;;18.15;;
69185;SDS011;56298;49.246;9.410;2023-10-19T02:08:46;31.17;;;17.63;;
69185;SDS011;56298;49.246;9.410;2023-10-19T02:11:19;31.40;;;18.10;;
69185;SDS011;56298;49.246;9.410;2023-10-19T02:13:47;33.07;;;18.07;;
69185;SDS011;56298;49.246;9.410;2023-10-19T02:16:14;33.63;;;18.60;;
69185;SDS011;56298;49.246;9.410;2023-10-19T02:18:47;31.55;;;17.83;;
69185;SDS011;56298;49.246;9.410;2023-10-19T02:21:13;30.13;;;17.85;;
69185;SDS011;56298;49.246;9.410;2023-10-19T02:23:39;30.70;;;17.38;;
69185;SDS011;56298;49.246;9.410;2023-10-19T02:26:06;29.33;;;17.17;;
69185;SDS011;56298;49.246;9.410;2023-10-19T02:28:33;29.00;;;17.30;;
69185;SDS011;56298;49.246;9.410;2023-10-19T02:31:02;30.95;;;17.20;;
69185;SDS011;56298;49.246;9.410;2023-10-19T02:33:43;32.90;;;18.33;;
69185;SDS011;56298;49.246;9.410;2023-10-19T02:36:16;32.23;;;18.47;;
69185;SDS011;56298;49.246;9.410;2023-10-19T02:38:45;32.87;;;18.20;;
69185;SDS011;56298;49.246;9.410;2023-10-19T02:41:17;34.05;;;18.45;;
69185;SDS011;56298;49.246;9.410;2023-10-19T02:43:43;36.15;;;19.55;;
69185;SDS011;56298;49.246;9.410;2023-10-19T02:46:12;34.67;;;18.85;;
69185;SDS011;56298;49.246;9.410;2023-10-19T02:48:38;34.50;;;19.10;;
69185;SDS011;56298;49.246;9.410;2023-10-19T02:51:09;36.67;;;19.47;;
69185;SDS011;56298;49.246;9.410;2023-10-19T02:53:36;37.67;;;19.77;;
69185;SDS011;56298;49.246;9.410;2023-10-19T02:56:09;36.30;;;19.40;;
69185;SDS011;56298;49.246;9.410;2023-10-19T02:58:35;34.22;;;19.02;;
69185;SDS011;56298;49.246;9.410;2023-10-19T03:01:01;36.20;;;19.60;;
69185;SDS011;56298;49.246;9.410;2023-10-19T03:03:26;32.73;;;18.63;;
69185;SDS011;56298;49.246;9.410;2023-10-19T03:05:52;32.93;;;18.20;;
69185;SDS011;56298;49.246;9.410;2023-10-19T03:08:17;35.83;;;19.63;;
69185;SDS011;56298;49.246;9.410;2023-10-19T03:10:44;31.85;;;17.98;;
69185;SDS011;56298;49.246;9.410;2023-10-19T03:13:09;34.05;;;18.60;;
69185;SDS011;56298;49.246;9.410;2023-10-19T03:15:35;35.30;;;18.77;;
69185;SDS011;56298;49.246;9.410;2023-10-19T03:18:01;34.38;;;18.35;;
69185;SDS011;56298;49.246;9.410;2023-10-19T03:20:28;33.20;;;17.45;;
69185;SDS011;56298;49.246;9.410;2023-10-19T03:22:54;31.58;;;17.90;;
69185;SDS011;56298;49.246;9.410;2023-10-19T03:25:24;30.95;;;17.13;;
69185;SDS011;56298;49.246;9.410;2023-10-19T03:28:08;34.63;;;17.27;;
69185;SDS011;56298;49.246;9.410;2023-10-19T03:30:36;28.45;;;16.17;;
69185;SDS011;56298;49.246;9.410;2023-10-19T03:33:03;29.70;;;16.73;;
69185;SDS011;56298;49.246;9.410;2023-10-19T03:35:29;30.30;;;16.67;;
69185;SDS011;56298;49.246;9.410;2023-10-19T03:37:55;29.60;;;17.07;;
69185;SDS011;56298;49.246;9.410;2023-10-19T03:40:23;29.70;;;17.03;;
69185;SDS011;56298;49.246;9.410;2023-10-19T03:42:56;29.63;;;16.92;;
69185;SDS011;56298;49.246;9.410;2023-10-19T03:45:23;30.38;;;16.90;;
69185;SDS011;56298;49.246;9.410;2023-10-19T03:47:50;28.63;;;16.80;;
69185;SDS011;56298;49.246;9.410;2023-10-19T03:50:18;29.17;;;17.13;;
69185;SDS011;56298;49.246;9.410;2023-10-19T03:52:46;31.67;;;17.70;;
69185;SDS011;56298;49.246;9.410;2023-10-19T03:55:11;31.75;;;17.88;;
69185;SDS011;56298;49.246;9.410;2023-10-19T03:57:40;31.58;;;17.13;;
69185;SDS011;56298;49.246;9.410;2023-10-19T04:00:07;31.23;;;17.42;;
69185;SDS011;56298;49.246;9.410;2023-10-19T04:02:40;30.47;;;16.77;;
69185;SDS011;56298;49.246;9.410;2023-10-19T04:05:07;33.00;;;17.73;;
69185;SDS011;56298;49.246;9.410;2023-10-19T04:07:34;29.97;;;16.87;;
69185;SDS011;56298;49.246;9.410;2023-10-19T04:10:00;32.60;;;17.63;;
69185;SDS011;56298;49.246;9.410;2023-10-19T04:12:31;35.07;;;17.90;;
69185;SDS011;56298;49.246;9.410;2023-10-19T04:14:58;30.70;;;17.20;;
69185;SDS011;56298;49.246;9.410;2023-10-19T04:17:40;32.07;;;17.67;;
69185;SDS011;56298;49.246;9.410;2023-10-19T04:20:07;30.50;;;17.33;;
69185;SDS011;56298;49.246;9.410;2023-10-19T04:22:43;29.73;;;16.17;;
69185;SDS011;56298;49.246;9.410;2023-10-19T04:25:12;28.30;;;17.13;;
69185;SDS011;56298;49.246;9.410;2023-10-19T04:27:41;30.40;;;16.88;;
69185;SDS011;56298;49.246;9.410;2023-10-19T04:30:11;30.75;;;17.50;;
69185;SDS011;56298;49.246;9.410;2023-10-19T04:32:47;32.63;;;17.90;;
69185;SDS011;56298;49.246;9.410;2023-10-19T04:35:13;33.15;;;18.05;;
69185;SDS011;56298;49.246;9.410;2023-10-19T04:37:46;31.55;;;17.95;;
69185;SDS011;56298;49.246;9.410;2023-10-19T04:40:11;32.30;;;18.48;;
69185;SDS011;56298;49.246;9.410;2023-10-19T04:42:40;31.52;;;17.13;;
69185;SDS011;56298;49.246;9.410;2023-10-19T04:45:05;33.03;;;18.00;;
69185;SDS011;56298;49.246;9.410;2023-10-19T04:47:31;32.53;;;18.17;;
69185;SDS011;56298;49.246;9.410;2023-10-19T04:50:00;31.17;;;17.38;;
69185;SDS011;56298;49.246;9.410;2023-10-19T04:52:25;31.07;;;17.53;;
69185;SDS011;56298;49.246;9.410;2023-10-19T04:54:51;29.90;;;17.00;;
69185;SDS011;56298;49.246;9.410;2023-10-19T04:57:16;29.80;;;16.53;;
69185;SDS011;56298;49.246;9.410;2023-10-19T04:59:41;31.40;;;16.83;;
69185;SDS011;56298;49.246;9.410;2023-10-19T05:02:10;29.92;;;16.60;;
69185;SDS011;56298;49.246;9.410;2023-10-19T05:04:35;31.43;;;16.67;;
69185;SDS011;56298;49.246;9.410;2023-10-19T05:07:00;33.80;;;17.27;;
69185;SDS011;56298;49.246;9.410;2023-10-19T05:09:28;33.38;;;18.27;;
69185;SDS011;56298;49.246;9.410;2023-10-19T05:11:54;36.30;;;18.90;;
69185;SDS011;56298;49.246;9.410;2023-10-19T05:14:20;33.05;;;17.60;;
69185;SDS011;56298;49.246;9.410;2023-10-19T05:16:45;36.83;;;18.37;;
69185;SDS011;56298;49.246;9.410;2023-10-19T05:19:10;31.93;;;17.60;;
69185;SDS011;56298;49.246;9.410;2023-10-19T05:21:35;31.20;;;16.40;;
69185;SDS011;56298;49.246;9.410;2023-10-19T05:24:00;30.40;;;16.67;;
69185;SDS011;56298;49.246;9.410;2023-10-19T05:26:26;32.17;;;17.03;;
69185;SDS011;56298;49.246;9.410;2023-10-19T05:28:52;36.90;;;18.90;;
69185;SDS011;56298;49.246;9.410;2023-10-19T05:31:17;35.43;;;18.23;;
69185;SDS011;56298;49.246;9.410;2023-10-19T05:33:43;33.22;;;16.70;;
69185;SDS011;56298;49.246;9.410;2023-10-19T05:36:08;30.52;;;16.95;;
69185;SDS011;56298;49.246;9.410;2023-10-19T05:38:34;41.47;;;18.70;;
69185;SDS011;56298;49.246;9.410;2023-10-19T05:40:59;35.28;;;17.92;;
69185;SDS011;56298;49.246;9.410;2023-10-19T05:43:25;38.57;;;17.57;;
69185;SDS011;56298;49.246;9.410;2023-10-19T05:45:50;35.17;;;17.37;;
69185;SDS011;56298;49.246;9.410;2023-10-19T05:48:19;36.03;;;17.60;;
69185;SDS011;56298;49.246;9.410;2023-10-19T05:50:45;60.50;;;19.40;;
69185;SDS011;56298;49.246;9.410;2023-10-19T05:53:11;54.73;;;19.43;;
69185;SDS011;56298;49.246;9.410;2023-10-19T05:55:36;184.83;;;25.53;;
69185;SDS011;56298;49.246;9.410;2023-10-19T05:58:04;81.30;;;20.33;;
69185;SDS011;56298;49.246;9.410;2023-10-19T06:00:29;137.93;;;23.40;;
69185;SDS011;56298;49.246;9.410;2023-10-19T06:02:55;134.13;;;23.50;;
69185;SDS011;56298;49.246;9.410;2023-10-19T06:05:20;35.80;;;18.03;;
69185;SDS011;56298;49.246;9.410;2023-10-19T06:07:46;37.40;;;18.73;;
69185;SDS011;56298;49.246;9.410;2023-10-19T06:10:13;35.78;;;18.10;;
69185;SDS011;56298;49.246;9.410;2023-10-19T06:12:45;32.25;;;17.35;;
69185;SDS011;56298;49.246;9.410;2023-10-19T06:15:12;32.17;;;16.55;;
69185;SDS011;56298;49.246;9.410;2023-10-19T06:17:39;31.90;;;17.20;;
69185;SDS011;56298;49.246;9.410;2023-10-19T06:20:06;42.60;;;18.58;;
69185;SDS011;56298;49.246;9.410;2023-10-19T06:22:34;31.92;;;17.27;;
69185;SDS011;56298;49.246;9.410;2023-10-19T06:25:00;32.03;;;16.63;;
69185;SDS011;56298;49.246;9.410;2023-10-19T06:27:26;31.07;;;16.60;;
69185;SDS011;56298;49.246;9.410;2023-10-19T06:29:51;38.40;;;16.80;;
69185;SDS011;56298;49.246;9.410;2023-10-19T06:32:18;54.45;;;17.27;;
69185;SDS011;56298;49.246;9.410;2023-10-19T06:34:43;32.17;;;16.30;;
69185;SDS011;56298;49.246;9.410;2023-10-19T06:37:08;30.10;;;16.20;;
69185;SDS011;56298;49.246;9.410;2023-10-19T06:39:36;29.27;;;16.38;;
69185;SDS011;56298;49.246;9.410;2023-10-19T06:42:05;28.73;;;16.08;;
69185;SDS011;56298;49.246;9.410;2023-10-19T06:44:34;28.35;;;15.80;;
69185;SDS011;56298;49.246;9.410;2023-10-19T06:47:01;29.75;;;16.15;;
69185;SDS011;56298;49.246;9.410;2023-10-19T06:49:26;30.20;;;16.33;;
69185;SDS011;56298;49.246;9.410;2023-10-19T06:51:51;33.33;;;16.37;;
69185;SDS011;56298;49.246;9.410;2023-10-19T06:54:16;28.40;;;16.00;;
69185;SDS011;56298;49.246;9.410;2023-10-19T06:56:43;34.25;;;15.63;;
69185;SDS011;56298;49.246;9.410;2023-10-19T06:59:10;32.25;;;15.55;;
69185;SDS011;56298;49.246;9.410;2023-10-19T07:01:35;42.37;;;16.40;;
69185;SDS011;56298;49.246;9.410;2023-10-19T07:04:01;37.53;;;16.20;;
69185;SDS011;56298;49.246;9.410;2023-10-19T07:06:27;55.53;;;16.80;;
69185;SDS011;56298;49.246;9.410;2023-10-19T07:08:52;130.67;;;19.63;;
69185;SDS011;56298;49.246;9.410;2023-10-19T07:11:18;65.33;;;16.80;;
69185;SDS011;56298;49.246;9.410;2023-10-19T07:13:43;26.87;;;14.50;;
69185;SDS011;56298;49.246;9.410;2023-10-19T07:16:11;27.93;;;14.33;;
69185;SDS011;56298;49.246;9.410;2023-10-19T07:18:36;41.43;;;15.60;;
69185;SDS011;56298;49.246;9.410;2023-10-19T07:21:02;28.57;;;14.80;;
69185;SDS011;56298;49.246;9.410;2023-10-19T07:23:28;54.05;;;16.38;;
69185;SDS011;56298;49.246;9.410;2023-10-19T07:25:53;54.40;;;15.97;;
69185;SDS011;56298;49.246;9.410;2023-10-19T07:28:20;28.92;;;13.88;;
69185;SDS011;56298;49.246;9.410;2023-10-19T07:30:47;47.92;;;15.55;;
69185;SDS011;56298;49.246;9.410;2023-10-19T07:33:12;28.30;;;14.02;;
69185;SDS011;56298;49.246;9.410;2023-10-19T07:35:48;47.33;;;15.10;;
69185;SDS011;56298;49.246;9.410;2023-10-19T07:38:20;32.20;;;14.80;;
69185;SDS011;56298;49.246;9.410;2023-10-19T07:40:49;26.80;;;13.55;;
69185;SDS011;56298;49.246;9.410;2023-10-19T07:43:17;26.47;;;13.33;;
69185;SDS011;56298;49.246;9.410;2023-10-19T07:45:45;24.35;;;12.90;;
69185;SDS011;56298;49.246;9.410;2023-10-19T07:48:12;45.95;;;13.52;;
69185;SDS011;56298;49.246;9.410;2023-10-19T07:50:39;30.40;;;12.70;;
69185;SDS011;56298;49.246;9.410;2023-10-19T07:53:07;22.55;;;12.73;;
69185;SDS011;56298;49.246;9.410;2023-10-19T07:55:34;45.58;;;13.48;;
69185;SDS011;56298;49.246;9.410;2023-10-19T07:58:00;25.42;;;11.55;;
69185;SDS011;56298;49.246;9.410;2023-10-19T08:00:27;23.27;;;11.97;;
69185;SDS011;56298;49.246;9.410;2023-10-19T08:02:54;33.58;;;12.88;;
69185;SDS011;56298;49.246;9.410;2023-10-19T08:05:20;18.90;;;11.57;;
69185;SDS011;56298;49.246;9.410;2023-10-19T08:07:46;18.90;;;10.60;;
69185;SDS011;56298;49.246;9.410;2023-10-19T08:10:12;17.88;;;11.30;;
69185;SDS011;56298;49.246;9.410;2023-10-19T08:12:38;24.15;;;11.15;;
69185;SDS011;56298;49.246;9.410;2023-10-19T08:15:08;18.33;;;11.20;;
69185;SDS011;56298;49.246;9.410;2023-10-19T08:17:36;28.23;;;12.38;;
69185;SDS011;56298;49.246;9.410;2023-10-19T08:20:03;23.63;;;11.93;;
69185;SDS011;56298;49.246;9.410;2023-10-19T08:22:29;26.20;;;12.57;;
69185;SDS011;56298;49.246;9.410;2023-10-19T08:24:55;60.67;;;14.40;;
69185;SDS011;56298;49.246;9.410;2023-10-19T08:27:21;23.93;;;12.13;;
69185;SDS011;56298;49.246;9.410;2023-10-19T08:29:46;18.97;;;11.27;;
69185;SDS011;56298;49.246;9.410;2023-10-19T08:32:11;20.23;;;11.77;;
69185;SDS011;56298;49.246;9.410;2023-10-19T08:34:37;18.67;;;11.87;;
69185;SDS011;56298;49.246;9.410;2023-10-19T08:37:03;29.45;;;13.00;;
69185;SDS011;56298;49.246;9.410;2023-10-19T08:39:31;27.37;;;11.73;;
69185;SDS011;56298;49.246;9.410;2023-10-19T08:42:03;19.33;;;12.10;;
69185;SDS011;56298;49.246;9.410;2023-10-19T08:44:29;28.58;;;11.95;;
69185;SDS011;56298;49.246;9.410;2023-10-19T08:46:55;19.67;;;11.17;;
69185;SDS011;56298;49.246;9.410;2023-10-19T08:49:22;31.05;;;12.70;;
69185;SDS011;56298;49.246;9.410;2023-10-19T08:51:47;18.93;;;11.90;;
69185;SDS011;56298;49.246;9.410;2023-10-19T08:54:14;16.25;;;10.88;;
69185;SDS011;56298;49.246;9.410;2023-10-19T08:56:40;20.27;;;11.80;;
69185;SDS011;56298;49.246;9.410;2023-10-19T08:59:07;18.70;;;11.20;;
69185;SDS011;56298;49.246;9.410;2023-10-19T09:01:33;17.80;;;11.38;;
69185;SDS011;56298;49.246;9.410;2023-10-19T09:04:00;18.02;;;11.00;;
69185;SDS011;56298;49.246;9.410;2023-10-19T09:06:26;20.98;;;10.82;;
69185;SDS011;56298;49.246;9.410;2023-10-19T09:08:54;17.17;;;10.13;;
69185;SDS011;56298;49.246;9.410;2023-10-19T09:11:19;19.57;;;10.23;;
69185;SDS011;56298;49.246;9.410;2023-10-19T09:16:18;16.25;;;10.23;;
69185;SDS011;56298;49.246;9.410;2023-10-19T09:18:45;14.82;;;9.60;;
69185;SDS011;56298;49.246;9.410;2023-10-19T09:21:11;15.13;;;9.67;;
69185;SDS011;56298;49.246;9.410;2023-10-19T09:23:49;17.75;;;10.82;;
69185;SDS011;56298;49.246;9.410;2023-10-19T09:26:15;15.00;;;9.77;;
69185;SDS011;56298;49.246;9.410;2023-10-19T09:28:41;16.27;;;9.95;;
69185;SDS011;56298;49.246;9.410;2023-10-19T09:31:06;15.70;;;9.43;;
69185;SDS011;56298;49.246;9.410;2023-10-19T09:33:34;15.52;;;9.80;;
69185;SDS011;56298;49.246;9.410;2023-10-19T09:36:00;17.20;;;9.97;;
69185;SDS011;56298;49.246;9.410;2023-10-19T09:38:27;14.98;;;9.68;;
69185;SDS011;56298;49.246;9.410;2023-10-19T09:40:53;15.77;;;10.07;;
69185;SDS011;56298;49.246;9.410;2023-10-19T09:46:00;14.87;;;9.17;;
69185;SDS011;56298;49.246;9.410;2023-10-19T09:48:26;16.60;;;9.18;;
69185;SDS011;56298;49.246;9.410;2023-10-19T09:50:55;12.87;;;8.17;;
69185;SDS011;56298;49.246;9.410;2023-10-19T09:53:23;14.07;;;8.35;;
69185;SDS011;56298;49.246;9.410;2023-10-19T09:55:51;12.98;;;8.00;;
69185;SDS011;56298;49.246;9.410;2023-10-19T09:58:23;11.98;;;7.00;;
69185;SDS011;56298;49.246;9.410;2023-10-19T10:00:52;11.80;;;6.50;;
69185;SDS011;56298;49.246;9.410;2023-10-19T10:06:07;10.18;;;5.80;;
69185;SDS011;56298;49.246;9.410;2023-10-19T10:08:34;11.50;;;5.55;;
69185;SDS011;56298;49.246;9.410;2023-10-19T10:11:23;10.40;;;5.83;;
69185;SDS011;56298;49.246;9.410;2023-10-19T10:13:57;9.90;;;5.68;;
69185;SDS011;56298;49.246;9.410;2023-10-19T10:16:24;21.13;;;5.53;;
69185;SDS011;56298;49.246;9.410;2023-10-19T10:18:54;10.90;;;4.40;;
69185;SDS011;56298;49.246;9.410;2023-10-19T10:21:24;8.20;;;3.30;;
69185;SDS011;56298;49.246;9.410;2023-10-19T10:23:50;8.03;;;3.40;;
69185;SDS011;56298;49.246;9.410;2023-10-19T10:26:24;7.50;;;3.07;;
69185;SDS011;56298;49.246;9.410;2023-10-19T10:31:53;7.95;;;3.35;;
69185;SDS011;56298;49.246;9.410;2023-10-19T10:39:35;7.68;;;3.35;;
69185;SDS011;56298;49.246;9.410;2023-10-19T10:42:06;7.70;;;2.92;;
69185;SDS011;56298;49.246;9.410;2023-10-19T10:47:00;8.43;;;3.40;;
69185;SDS011;56298;49.246;9.410;2023-10-19T10:49:26;8.20;;;3.58;;
69185;SDS011;56298;49.246;9.410;2023-10-19T10:51:51;6.90;;;3.00;;
69185;SDS011;56298;49.246;9.410;2023-10-19T10:54:21;8.10;;;3.17;;
69185;SDS011;56298;49.246;9.410;2023-10-19T10:56:46;7.50;;;2.80;;
69185;SDS011;56298;49.246;9.410;2023-10-19T10:59:12;6.87;;;3.20;;
69185;SDS011;56298;49.246;9.410;2023-10-19T11:01:38;6.75;;;3.08;;
69185;SDS011;56298;49.246;9.410;2023-10-19T11:04:12;7.40;;;2.90;;
69185;SDS011;56298;49.246;9.410;2023-10-19T11:06:49;7.32;;;3.15;;
69185;SDS011;56298;49.246;9.410;2023-10-19T11:09:19;7.47;;;2.60;;
69185;SDS011;56298;49.246;9.410;2023-10-19T11:11:45;7.23;;;2.87;;
69185;SDS011;56298;49.246;9.410;2023-10-19T11:14:19;7.55;;;3.03;;
69185;SDS011;56298;49.246;9.410;2023-10-19T11:16:48;6.18;;;2.50;;
69185;SDS011;56298;49.246;9.410;2023-10-19T11:19:14;5.80;;;2.78;;
69185;SDS011;56298;49.246;9.410;2023-10-19T11:21:51;8.80;;;3.00;;
69185;SDS011;56298;49.246;9.410;2023-10-19T11:24:25;6.95;;;2.88;;
69185;SDS011;56298;49.246;9.410;2023-10-19T11:26:51;7.40;;;2.97;;
69185;SDS011;56298;49.246;9.410;2023-10-19T11:29:16;8.40;;;3.20;;
69185;SDS011;56298;49.246;9.410;2023-10-19T11:31:41;9.18;;;3.40;;
69185;SDS011;56298;49.246;9.410;2023-10-19T11:34:21;7.28;;;2.90;;
69185;SDS011;56298;49.246;9.410;2023-10-19T11:36:47;6.57;;;2.80;;
69185;SDS011;56298;49.246;9.410;2023-10-19T11:39:17;6.63;;;2.60;;
69185;SDS011;56298;49.246;9.410;2023-10-19T11:41:43;8.53;;;2.80;;
69185;SDS011;56298;49.246;9.410;2023-10-19T11:44:08;5.73;;;2.53;;
69185;SDS011;56298;49.246;9.410;2023-10-19T11:46:33;8.23;;;2.77;;
69185;SDS011;56298;49.246;9.410;2023-10-19T11:48:58;6.88;;;2.58;;
69185;SDS011;56298;49.246;9.410;2023-10-19T11:51:24;7.27;;;2.47;;
69185;SDS011;56298;49.246;9.410;2023-10-19T11:53:49;6.17;;;2.50;;
69185;SDS011;56298;49.246;9.410;2023-10-19T11:56:14;7.13;;;2.80;;
69185;SDS011;56298;49.246;9.410;2023-10-19T11:58:41;7.03;;;2.47;;
69185;SDS011;56298;49.246;9.410;2023-10-19T12:01:08;5.70;;;2.33;;
69185;SDS011;56298;49.246;9.410;2023-10-19T12:03:37;6.88;;;2.92;;
69185;SDS011;56298;49.246;9.410;2023-10-19T12:06:06;6.50;;;2.60;;
69185;SDS011;56298;49.246;9.410;2023-10-19T12:08:32;8.90;;;2.83;;
69185;SDS011;56298;49.246;9.410;2023-10-19T12:10:59;8.68;;;3.28;;
69185;SDS011;56298;49.246;9.410;2023-10-19T12:13:26;7.13;;;3.00;;
69185;SDS011;56298;49.246;9.410;2023-10-19T12:15:53;8.20;;;3.83;;
69185;SDS011;56298;49.246;9.410;2023-10-19T12:18:20;10.50;;;3.53;;
69185;SDS011;56298;49.246;9.410;2023-10-19T12:20:46;7.00;;;3.07;;
69185;SDS011;56298;49.246;9.410;2023-10-19T12:23:12;6.95;;;3.10;;
69185;SDS011;56298;49.246;9.410;2023-10-19T12:25:38;7.13;;;3.05;;
69185;SDS011;56298;49.246;9.410;2023-10-19T12:28:03;10.03;;;3.60;;
69185;SDS011;56298;49.246;9.410;2023-10-19T12:30:29;8.02;;;3.55;;
69185;SDS011;56298;49.246;9.410;2023-10-19T12:33:00;10.25;;;4.22;;
69185;SDS011;56298;49.246;9.410;2023-10-19T12:35:26;7.20;;;3.60;;
69185;SDS011;56298;49.246;9.410;2023-10-19T12:38:09;8.18;;;3.65;;
69185;SDS011;56298;49.246;9.410;2023-10-19T12:40:40;6.50;;;2.65;;
69185;SDS011;56298;49.246;9.410;2023-10-19T12:43:09;7.22;;;2.35;;
69185;SDS011;56298;49.246;9.410;2023-10-19T12:45:36;6.15;;;2.28;;
69185;SDS011;56298;49.246;9.410;2023-10-19T12:48:04;5.13;;;1.90;;
69185;SDS011;56298;49.246;9.410;2023-10-19T12:50:30;5.97;;;2.53;;
69185;SDS011;56298;49.246;9.410;2023-10-19T12:52:56;5.65;;;2.15;;
69185;SDS011;56298;49.246;9.410;2023-10-19T12:55:22;6.67;;;2.10;;
69185;SDS011;56298;49.246;9.410;2023-10-19T12:57:47;6.80;;;2.23;;
69185;SDS011;56298;49.246;9.410;2023-10-19T13:00:12;5.73;;;2.27;;
69185;SDS011;56298;49.246;9.410;2023-10-19T13:03:11;6.10;;;2.40;;
69185;SDS011;56298;49.246;9.410;2023-10-19T13:05:41;6.43;;;2.50;;
69185;SDS011;56298;49.246;9.410;2023-10-19T13:08:07;5.83;;;2.30;;
69185;SDS011;56298;49.246;9.410;2023-10-19T13:10:34;6.50;;;2.40;;
69185;SDS011;56298;49.246;9.410;2023-10-19T13:13:02;6.22;;;2.40;;
69185;SDS011;56298;49.246;9.410;2023-10-19T13:15:30;5.90;;;2.05;;
69185;SDS011;56298;49.246;9.410;2023-10-19T13:17:57;4.95;;;2.20;;
69185;SDS011;56298;49.246;9.410;2023-10-19T13:20:24;5.63;;;2.13;;
69185;SDS011;56298;49.246;9.410;2023-10-19T13:22:50;5.72;;;2.03;;
69185;SDS011;56298;49.246;9.410;2023-10-19T13:25:16;5.27;;;1.90;;
69185;SDS011;56298;49.246;9.410;2023-10-19T13:27:43;5.87;;;1.80;;
69185;SDS011;56298;49.246;9.410;2023-10-19T13:30:09;4.35;;;1.63;;
69185;SDS011;56298;49.246;9.410;2023-10-19T13:32:36;4.95;;;1.95;;
69185;SDS011;56298;49.246;9.410;2023-10-19T13:35:03;5.90;;;1.83;;
69185;SDS011;56298;49.246;9.410;2023-10-19T13:37:32;5.88;;;2.00;;
69185;SDS011;56298;49.246;9.410;2023-10-19T13:39:57;5.10;;;1.97;;
69185;SDS011;56298;49.246;9.410;2023-10-19T13:42:23;4.20;;;1.75;;
69185;SDS011;56298;49.246;9.410;2023-10-19T13:44:49;6.17;;;1.87;;
69185;SDS011;56298;49.246;9.410;2023-10-19T13:47:14;5.73;;;2.10;;
69185;SDS011;56298;49.246;9.410;2023-10-19T13:49:40;7.60;;;2.92;;
69185;SDS011;56298;49.246;9.410;2023-10-19T13:52:06;6.03;;;2.80;;
69185;SDS011;56298;49.246;9.410;2023-10-19T13:54:33;5.18;;;2.40;;
69185;SDS011;56298;49.246;9.410;2023-10-19T13:56:59;5.80;;;2.33;;
69185;SDS011;56298;49.246;9.410;2023-10-19T13:59:27;5.43;;;2.35;;
69185;SDS011;56298;49.246;9.410;2023-10-19T14:01:53;6.10;;;2.10;;
69185;SDS011;56298;49.246;9.410;2023-10-19T14:04:18;6.07;;;2.40;;
69185;SDS011;56298;49.246;9.410;2023-10-19T14:06:43;5.47;;;2.00;;
69185;SDS011;56298;49.246;9.410;2023-10-19T14:09:09;6.05;;;2.17;;
69185;SDS011;56298;49.246;9.410;2023-10-19T14:11:37;4.93;;;2.00;;
69185;SDS011;56298;49.246;9.410;2023-10-19T14:14:03;6.63;;;2.20;;
69185;SDS011;56298;49.246;9.410;2023-10-19T14:16:28;6.90;;;2.47;;
69185;SDS011;56298;49.246;9.410;2023-10-19T14:18:54;5.70;;;2.43;;
69185;SDS011;56298;49.246;9.410;2023-10-19T14:21:21;6.17;;;2.20;;
69185;SDS011;56298;49.246;9.410;2023-10-19T14:23:46;4.75;;;1.92;;
69185;SDS011;56298;49.246;9.410;2023-10-19T14:26:13;5.50;;;1.92;;
69185;SDS011;56298;49.246;9.410;2023-10-19T14:28:38;5.38;;;2.00;;
69185;SDS011;56298;49.246;9.410;2023-10-19T14:31:05;5.30;;;1.90;;
69185;SDS011;56298;49.246;9.410;2023-10-19T14:33:32;7.20;;;2.20;;
69185;SDS011;56298;49.246;9.410;2023-10-19T14:36:00;6.28;;;1.95;;
69185;SDS011;56298;49.246;9.410;2023-10-19T14:38:26;5.90;;;2.13;;
69185;SDS011;56298;49.246;9.410;2023-10-19T14:40:52;7.72;;;2.28;;
69185;SDS011;56298;49.246;9.410;2023-10-19T14:43:18;5.38;;;2.42;;
69185;SDS011;56298;49.246;9.410;2023-10-19T14:45:43;7.17;;;2.37;;
69185;SDS011;56298;49.246;9.410;2023-10-19T14:48:09;5.50;;;2.30;;
69185;SDS011;56298;49.246;9.410;2023-10-19T14:50:36;5.80;;;2.65;;
69185;SDS011;56298;49.246;9.410;2023-10-19T14:53:03;5.70;;;2.67;;